Time;durP1;ratioP1;P1;durP2;ratioP2;P2;SDS_P1;SDS_P2;PMS_P1;PMS_P2;Temp;Humidity;BMP_temperature;BMP_pressure;BME280_temperature;BME280_humidity;BME280_pressure;Samples;Min_cycle;Max_cycle;Signal;HPM_P1;HPM_P2
2021/12/24 00:01:52;;;;;;;121.57;40.63;;;;;;;;;;5028299;28;43995;-86
2021/12/24 00:04:21;;;;;;;165.93;46.20;;;;;;;;;;5029349;28;44713;-87
2021/12/24 00:06:49;;;;;;;202.75;49.60;;;;;;;;;;5029163;28;43903;-87
2021/12/24 00:09:21;;;;;;;121.93;42.25;;;;;;;;;;5028475;28;42963;-86
2021/12/24 00:11:49;;;;;;;147.70;43.83;;;;;;;;;;5028873;28;42726;-86
2021/12/24 00:14:16;;;;;;;135.23;40.47;;;;;;;;;;5029217;28;44078;-86
2021/12/24 00:16:49;;;;;;;151.27;44.42;;;;;;;;;;5028149;28;44781;-86
2021/12/24 00:22:19;;;;;;;126.40;41.42;;;;;;;;;;5028954;28;43173;-86
2021/12/24 00:35:43;;;;;;;125.00;39.30;;;;;;;;;;5013303;28;45308;-86
2021/12/24 00:38:10;;;;;;;115.93;35.97;;;;;;;;;;5011733;28;43911;-86
2021/12/24 00:40:39;;;;;;;102.10;34.95;;;;;;;;;;5012927;28;44467;-86
2021/12/24 00:43:05;;;;;;;;;;;;;;;;;;5020510;28;44949;-86
2021/12/24 00:45:33;;;;;;;86.32;32.15;;;;;;;;;;5033596;28;43929;-87
2021/12/24 00:48:02;;;;;;;100.45;34.63;;;;;;;;;;5032116;28;45031;-86
2021/12/24 00:50:30;;;;;;;85.15;32.95;;;;;;;;;;5032326;28;20084;-87
2021/12/24 00:53:02;;;;;;;;;;;;;;;;;;5033038;28;45722;-86
2021/12/24 00:55:30;;;;;;;97.55;34.83;;;;;;;;;;5032665;28;45089;-87
2021/12/24 00:57:57;;;;;;;;;;;;;;;;;;5032181;28;42646;-86
2021/12/24 01:00:50;;;;;;;77.25;29.98;;;;;;;;;;5032775;28;43512;-86
2021/12/24 01:03:17;;;;;;;123.00;37.05;;;;;;;;;;5030143;28;42913;-86
2021/12/24 01:05:43;;;;;;;122.75;37.80;;;;;;;;;;5031272;28;44841;-87
2021/12/24 01:08:11;;;;;;;99.00;34.90;;;;;;;;;;5031567;28;44847;-86
2021/12/24 01:10:40;;;;;;;118.47;39.33;;;;;;;;;;5032055;28;44960;-86
2021/12/24 01:13:06;;;;;;;147.02;41.75;;;;;;;;;;5030748;28;43749;-86
2021/12/24 01:15:37;;;;;;;106.20;37.65;;;;;;;;;;5031289;28;44245;-86
2021/12/24 01:25:58;;;;;;;120.90;39.25;;;;;;;;;;5029814;28;44973;-86
2021/12/24 01:39:53;;;;;;;105.95;36.90;;;;;;;;;;5030553;28;44675;-87
2021/12/24 01:45:14;;;;;;;153.65;43.75;;;;;;;;;;5031123;28;44956;-86
2021/12/24 01:47:41;;;;;;;107.88;37.22;;;;;;;;;;5030680;28;43793;-86
2021/12/24 01:50:08;;;;;;;123.03;37.95;;;;;;;;;;5031944;28;44818;-87
2021/12/24 01:52:35;;;;;;;134.43;41.97;;;;;;;;;;5031310;28;44985;-87
2021/12/24 01:55:02;;;;;;;198.98;46.03;;;;;;;;;;5030549;28;44778;-87
2021/12/24 01:57:31;;;;;;;139.30;40.92;;;;;;;;;;5030768;28;45017;-86
2021/12/24 01:59:59;;;;;;;158.23;44.63;;;;;;;;;;5031706;28;43055;-86
2021/12/24 02:02:27;;;;;;;151.17;45.00;;;;;;;;;;5030160;28;45090;-86
2021/12/24 02:04:54;;;;;;;121.05;40.17;;;;;;;;;;5031219;28;43926;-86
2021/12/24 02:07:21;;;;;;;162.27;45.50;;;;;;;;;;5029771;28;44000;-86
2021/12/24 02:09:47;;;;;;;178.48;49.33;;;;;;;;;;5030889;28;45774;-87
2021/12/24 02:12:15;;;;;;;183.60;50.17;;;;;;;;;;5030673;28;43909;-86
2021/12/24 02:14:48;;;;;;;168.88;47.58;;;;;;;;;;5031045;28;45136;-86
2021/12/24 02:28:21;;;;;;;194.35;53.00;;;;;;;;;;5030308;28;43183;-86
2021/12/24 02:30:48;;;;;;;148.70;47.70;;;;;;;;;;5029991;28;44968;-87
2021/12/24 02:33:15;;;;;;;135.52;45.13;;;;;;;;;;5029482;28;46340;-87
2021/12/24 02:35:42;;;;;;;182.98;51.63;;;;;;;;;;5029838;28;43983;-86
2021/12/24 02:38:09;;;;;;;246.05;56.33;;;;;;;;;;5030506;28;43710;-87
2021/12/24 02:40:36;;;;;;;142.50;46.17;;;;;;;;;;5031192;28;41706;-87
2021/12/24 02:43:03;;;;;;;118.10;43.30;;;;;;;;;;5029102;28;45149;-87
2021/12/24 02:45:33;;;;;;;153.82;45.47;;;;;;;;;;5030596;28;45311;-87
2021/12/24 02:56:14;;;;;;;115.68;37.70;;;;;;;;;;5028382;28;44905;-86
2021/12/24 02:58:41;;;;;;;136.60;41.63;;;;;;;;;;5029358;28;44844;-86
2021/12/24 03:01:09;;;;;;;154.55;40.25;;;;;;;;;;5030707;28;42831;-86
2021/12/24 03:03:36;;;;;;;172.45;41.10;;;;;;;;;;5029864;28;44813;-86
2021/12/24 03:06:04;;;;;;;145.73;37.30;;;;;;;;;;5029687;28;43939;-86
2021/12/24 03:08:31;;;;;;;95.78;31.73;;;;;;;;;;5030583;28;43941;-87
2021/12/24 03:10:58;;;;;;;87.25;30.73;;;;;;;;;;5029310;28;42939;-86
2021/12/24 03:13:26;;;;;;;110.00;32.33;;;;;;;;;;5029901;28;44975;-86
2021/12/24 03:15:55;;;;;;;87.07;30.60;;;;;;;;;;5030611;28;45276;-86
2021/12/24 03:18:28;;;;;;;83.28;29.40;;;;;;;;;;5028691;28;42676;-86
2021/12/24 03:21:05;;;;;;;80.80;26.50;;;;;;;;;;5030334;28;45280;-87
2021/12/24 03:23:38;;;;;;;92.57;28.35;;;;;;;;;;5029743;28;43960;-87
2021/12/24 03:26:06;;;;;;;100.40;28.50;;;;;;;;;;5029592;28;45036;-86
2021/12/24 03:28:33;;;;;;;66.30;24.13;;;;;;;;;;5030115;28;41490;-87
2021/12/24 03:31:01;;;;;;;73.80;23.15;;;;;;;;;;5030069;28;45044;-86
2021/12/24 03:33:28;;;;;;;108.50;27.93;;;;;;;;;;5029593;28;42941;-87
2021/12/24 03:35:54;;;;;;;63.30;23.88;;;;;;;;;;5029866;28;45295;-87
2021/12/24 03:38:21;;;;;;;71.85;23.70;;;;;;;;;;5028685;28;43722;-87
2021/12/24 03:40:48;;;;;;;74.93;24.75;;;;;;;;;;5029599;28;43938;-87
2021/12/24 03:43:15;;;;;;;76.75;23.23;;;;;;;;;;5029522;28;42928;-87
2021/12/24 03:45:56;;;;;;;80.07;22.92;;;;;;;;;;5030022;28;42754;-87
2021/12/24 03:48:28;;;;;;;59.22;21.83;;;;;;;;;;5028661;28;44957;-87
2021/12/24 03:51:07;;;;;;;83.93;23.45;;;;;;;;;;5029897;28;45636;-87
2021/12/24 03:56:19;;;;;;;57.83;20.55;;;;;;;;;;5029329;28;45108;-87
2021/12/24 03:58:45;;;;;;;95.35;25.92;;;;;;;;;;5029773;28;44795;-86
2021/12/24 04:01:12;;;;;;;91.80;24.58;;;;;;;;;;5028716;28;45094;-86
2021/12/24 04:03:39;;;;;;;74.88;23.17;;;;;;;;;;5029779;28;43779;-86
2021/12/24 04:06:06;;;;;;;76.35;21.50;;;;;;;;;;5030847;28;42644;-84
2021/12/24 04:08:33;;;;;;;63.97;21.88;;;;;;;;;;5032753;28;42916;-87
2021/12/24 04:11:00;;;;;;;57.13;21.98;;;;;;;;;;5033193;28;44781;-87
2021/12/24 04:13:26;;;;;;;56.42;22.13;;;;;;;;;;5032048;28;45932;-87
2021/12/24 04:15:53;;;;;;;74.50;22.35;;;;;;;;;;5032189;28;42860;-86
2021/12/24 04:18:35;;;;;;;63.60;21.15;;;;;;;;;;5032554;28;44768;-87
2021/12/24 04:26:35;;;;;;;99.22;24.50;;;;;;;;;;5057562;28;43738;-88
2021/12/24 04:29:02;;;;;;;51.97;19.27;;;;;;;;;;5039307;28;42926;-87
2021/12/24 04:31:39;;;;;;;69.75;20.77;;;;;;;;;;5032588;28;43739;-87
2021/12/24 04:34:07;;;;;;;66.72;20.92;;;;;;;;;;5033424;28;43084;-86
2021/12/24 04:51:06;;;;;;;40.90;15.90;;;;;;;;;;5032369;28;43796;-86
2021/12/24 05:02:02;;;;;;;45.40;13.30;;;;;;;;;;5030641;28;43710;-86
2021/12/24 05:04:14;;;;;;;32.30;13.32;;;;;;;;;;5027164;28;42984;-87
2021/12/24 05:06:51;;;;;;;33.15;12.27;;;;;;;;;;5028530;28;45019;-86
2021/12/24 05:09:23;;;;;;;47.63;13.70;;;;;;;;;;5029666;28;44337;-86
2021/12/24 05:11:50;;;;;;;47.53;13.50;;;;;;;;;;5028873;28;42752;-87
2021/12/24 05:14:17;;;;;;;39.13;12.38;;;;;;;;;;5031699;28;43572;-86
2021/12/24 05:16:50;;;;;;;37.25;12.93;;;;;;;;;;5031406;28;43739;-86
2021/12/24 05:21:49;;;;;;;41.60;12.73;;;;;;;;;;5031402;28;44753;-86
2021/12/24 05:24:17;;;;;;;54.35;13.30;;;;;;;;;;5030731;28;45417;-86
2021/12/24 05:26:46;;;;;;;40.42;12.52;;;;;;;;;;5031226;28;44940;-86
2021/12/24 05:29:13;;;;;;;51.75;11.30;;;;;;;;;;5031524;28;44769;-86
2021/12/24 05:31:40;;;;;;;51.75;10.80;;;;;;;;;;5029725;28;46081;-86
2021/12/24 05:34:07;;;;;;;48.00;11.07;;;;;;;;;;5031570;28;31823;-86
2021/12/24 05:36:34;;;;;;;46.13;11.35;;;;;;;;;;5030948;28;42810;-86
2021/12/24 05:39:02;;;;;;;30.95;9.80;;;;;;;;;;5030510;28;42974;-85
2021/12/24 05:41:28;;;;;;;59.47;11.10;;;;;;;;;;5031046;28;43734;-86
2021/12/24 05:43:56;;;;;;;42.83;9.50;;;;;;;;;;5029277;28;43948;-86
2021/12/24 05:46:24;;;;;;;40.80;10.27;;;;;;;;;;5028102;28;43945;-86
2021/12/24 05:48:51;;;;;;;39.60;9.93;;;;;;;;;;5029733;28;44819;-86
2021/12/24 05:51:18;;;;;;;36.00;9.70;;;;;;;;;;5029425;28;44949;-86
2021/12/24 05:53:45;;;;;;;37.88;9.13;;;;;;;;;;5030382;28;44986;-86
2021/12/24 05:56:12;;;;;;;44.65;9.52;;;;;;;;;;5030480;28;42662;-86
2021/12/24 05:58:39;;;;;;;43.35;9.23;;;;;;;;;;5031368;28;43410;-85
2021/12/24 06:01:06;;;;;;;40.55;9.90;;;;;;;;;;5030054;28;44740;-85
2021/12/24 06:03:33;;;;;;;27.02;8.55;;;;;;;;;;5031447;28;45004;-86
2021/12/24 06:06:00;;;;;;;36.08;10.15;;;;;;;;;;5030660;28;44929;-86
2021/12/24 06:08:26;;;;;;;34.67;8.50;;;;;;;;;;5029957;28;43666;-86
2021/12/24 06:10:55;;;;;;;36.08;9.45;;;;;;;;;;5030987;28;45104;-86
2021/12/24 06:13:27;;;;;;;34.25;8.50;;;;;;;;;;5030876;28;45086;-86
2021/12/24 06:15:54;;;;;;;32.28;7.03;;;;;;;;;;5031273;28;43744;-86
2021/12/24 06:18:26;;;;;;;44.88;8.77;;;;;;;;;;5030512;28;42234;-86
2021/12/24 06:20:54;;;;;;;36.22;7.07;;;;;;;;;;5030045;28;44962;-85
2021/12/24 06:23:22;;;;;;;42.25;8.85;;;;;;;;;;5030731;28;44983;-86
2021/12/24 06:25:49;;;;;;;21.33;6.93;;;;;;;;;;5031198;28;44960;-86
2021/12/24 06:28:16;;;;;;;28.65;8.30;;;;;;;;;;5029655;28;43616;-86
2021/12/24 06:30:43;;;;;;;27.80;7.60;;;;;;;;;;5030309;28;42920;-86
2021/12/24 06:33:10;;;;;;;33.25;7.93;;;;;;;;;;5030205;28;44006;-86
2021/12/24 06:35:37;;;;;;;31.25;7.30;;;;;;;;;;5030186;28;44747;-86
2021/12/24 06:38:04;;;;;;;46.15;7.93;;;;;;;;;;5030266;28;43882;-85
2021/12/24 06:40:31;;;;;;;39.13;7.70;;;;;;;;;;5031277;28;43975;-86
2021/12/24 06:42:58;;;;;;;31.25;8.02;;;;;;;;;;5029351;28;45018;-86
2021/12/24 06:45:25;;;;;;;31.55;7.53;;;;;;;;;;5031017;28;20042;-86
2021/12/24 06:47:53;;;;;;;36.53;7.43;;;;;;;;;;5029970;28;44685;-86
2021/12/24 06:50:20;;;;;;;40.20;7.68;;;;;;;;;;5029665;28;44948;-86
2021/12/24 06:52:47;;;;;;;36.85;7.68;;;;;;;;;;5029886;28;43190;-85
2021/12/24 06:55:13;;;;;;;31.55;7.95;;;;;;;;;;5030504;28;42660;-86
2021/12/24 06:57:41;;;;;;;32.78;7.60;;;;;;;;;;5028650;28;44313;-85
2021/12/24 07:00:09;;;;;;;30.58;7.95;;;;;;;;;;5030435;28;43905;-85
2021/12/24 07:02:35;;;;;;;29.83;7.65;;;;;;;;;;5029750;28;43669;-85
2021/12/24 07:05:02;;;;;;;39.30;7.50;;;;;;;;;;5029587;28;45350;-86
2021/12/24 07:07:29;;;;;;;44.80;8.98;;;;;;;;;;5030328;28;41493;-86
2021/12/24 07:09:55;;;;;;;34.90;8.10;;;;;;;;;;5028679;28;43853;-86
2021/12/24 07:12:22;;;;;;;40.10;8.45;;;;;;;;;;5029272;28;45077;-86
2021/12/24 07:14:49;;;;;;;40.55;8.55;;;;;;;;;;5029989;28;42666;-85
2021/12/24 07:17:16;;;;;;;42.60;9.30;;;;;;;;;;5028226;28;44996;-85
2021/12/24 07:19:43;;;;;;;39.75;9.98;;;;;;;;;;5030869;28;44046;-85
2021/12/24 07:22:10;;;;;;;40.33;7.78;;;;;;;;;;5028288;28;42655;-86
2021/12/24 07:24:36;;;;;;;35.97;8.15;;;;;;;;;;5027997;28;43950;-85
2021/12/24 07:27:03;;;;;;;47.08;9.13;;;;;;;;;;5028460;28;44846;-85
2021/12/24 07:29:30;;;;;;;40.00;9.07;;;;;;;;;;5030128;28;44310;-86
2021/12/24 07:31:57;;;;;;;48.55;9.30;;;;;;;;;;5029065;28;44889;-85
2021/12/24 07:34:24;;;;;;;31.60;8.18;;;;;;;;;;5029318;28;42742;-85
2021/12/24 07:36:50;;;;;;;35.55;8.48;;;;;;;;;;5029268;28;44978;-85
2021/12/24 07:39:17;;;;;;;37.65;9.00;;;;;;;;;;5029559;28;44133;-85
2021/12/24 07:41:44;;;;;;;36.72;8.73;;;;;;;;;;5028218;28;43609;-85
2021/12/24 07:44:11;;;;;;;43.17;9.48;;;;;;;;;;5029870;28;45016;-86
2021/12/24 07:46:46;;;;;;;34.90;9.40;;;;;;;;;;5028768;28;42726;-85
2021/12/24 07:49:38;;;;;;;41.63;9.00;;;;;;;;;;5030446;28;43545;-86
2021/12/24 07:52:09;;;;;;;37.30;9.45;;;;;;;;;;5027968;28;44668;-85
2021/12/24 07:54:40;;;;;;;40.70;9.40;;;;;;;;;;5029997;28;44022;-85
2021/12/24 07:57:07;;;;;;;43.35;9.40;;;;;;;;;;5029578;28;30891;-85
2021/12/24 07:59:38;;;;;;;46.40;10.43;;;;;;;;;;5028712;28;45293;-85
2021/12/24 08:02:04;;;;;;;;;;;;;;;;;;5030500;28;43661;-85
2021/12/24 08:04:31;;;;;;;34.88;8.25;;;;;;;;;;5030161;28;43631;-85
2021/12/24 08:07:00;;;;;;;44.28;9.00;;;;;;;;;;5027564;28;43134;-85
2021/12/24 08:09:26;;;;;;;33.63;8.77;;;;;;;;;;5028855;28;43668;-85
2021/12/24 08:11:53;;;;;;;36.95;8.98;;;;;;;;;;5027549;28;42686;-85
2021/12/24 08:14:20;;;;;;;42.65;9.43;;;;;;;;;;5029195;28;42633;-86
2021/12/24 08:16:46;;;;;;;43.38;9.00;;;;;;;;;;5041696;28;43913;-86
2021/12/24 08:19:16;;;;;;;37.28;8.10;;;;;;;;;;5050084;28;44216;-86
2021/12/24 08:21:43;;;;;;;39.05;7.55;;;;;;;;;;5031102;28;44146;-85
2021/12/24 08:24:10;;;;;;;30.48;8.38;;;;;;;;;;5029488;28;43805;-86
2021/12/24 08:26:37;;;;;;;43.87;9.13;;;;;;;;;;5024044;28;44952;-85
2021/12/24 08:29:04;;;;;;;33.20;7.57;;;;;;;;;;5028472;28;42739;-85
2021/12/24 08:31:31;;;;;;;32.13;8.45;;;;;;;;;;5035994;28;44993;-86
2021/12/24 08:33:58;;;;;;;38.28;8.90;;;;;;;;;;5048460;28;43287;-85
2021/12/24 08:36:25;;;;;;;43.53;8.80;;;;;;;;;;5045947;28;44932;-85
2021/12/24 08:38:55;;;;;;;26.80;7.25;;;;;;;;;;5046776;28;44524;-86
2021/12/24 08:41:22;;;;;;;38.72;7.38;;;;;;;;;;5046489;28;43727;-85
2021/12/24 08:43:49;;;;;;;39.27;8.73;;;;;;;;;;5034391;28;45696;-85
2021/12/24 08:46:16;;;;;;;34.30;7.97;;;;;;;;;;5028140;28;43156;-85
2021/12/24 08:48:43;;;;;;;36.70;8.20;;;;;;;;;;5027582;28;43602;-86
2021/12/24 08:51:11;;;;;;;36.80;8.38;;;;;;;;;;5022524;28;42694;-85
2021/12/24 08:53:38;;;;;;;47.78;9.15;;;;;;;;;;5030473;28;43939;-85
2021/12/24 08:56:05;;;;;;;47.38;10.30;;;;;;;;;;5029001;28;41820;-85
2021/12/24 08:58:36;;;;;;;44.05;8.77;;;;;;;;;;5030097;28;42925;-86
2021/12/24 09:01:03;;;;;;;37.40;8.32;;;;;;;;;;5027835;28;43390;-89
2021/12/24 09:03:30;;;;;;;38.35;8.73;;;;;;;;;;5030403;28;46259;-86
2021/12/24 09:05:56;;;;;;;45.38;8.75;;;;;;;;;;5031924;28;44230;-85
2021/12/24 09:08:23;;;;;;;36.30;8.98;;;;;;;;;;5030961;28;42885;-85
2021/12/24 09:10:50;;;;;;;29.33;9.10;;;;;;;;;;5030598;28;43880;-85
2021/12/24 09:13:17;;;;;;;41.28;9.63;;;;;;;;;;5030975;28;43860;-85
2021/12/24 09:15:44;;;;;;;31.10;7.97;;;;;;;;;;5032165;28;44313;-86
2021/12/24 09:18:11;;;;;;;41.80;8.57;;;;;;;;;;5030212;28;42888;-86
2021/12/24 09:20:42;;;;;;;38.78;9.55;;;;;;;;;;5030776;28;44755;-88
2021/12/24 09:23:10;;;;;;;26.55;8.13;;;;;;;;;;5030109;28;44187;-86
2021/12/24 09:25:37;;;;;;;35.25;8.57;;;;;;;;;;5031100;28;42939;-86
2021/12/24 09:28:04;;;;;;;39.53;7.82;;;;;;;;;;5031008;28;42631;-84
2021/12/24 09:30:32;;;;;;;32.63;7.75;;;;;;;;;;5031644;28;42899;-86
2021/12/24 09:32:59;;;;;;;35.65;7.65;;;;;;;;;;5031514;28;43841;-87
2021/12/24 09:35:26;;;;;;;60.13;9.88;;;;;;;;;;5031935;28;41319;-87
2021/12/24 09:37:53;;;;;;;40.47;8.90;;;;;;;;;;5030010;28;29012;-88
2021/12/24 09:40:20;;;;;;;47.03;9.20;;;;;;;;;;5031824;28;44705;-85
2021/12/24 09:42:47;;;;;;;38.58;8.07;;;;;;;;;;5030459;28;42938;-85
2021/12/24 09:45:14;;;;;;;37.55;8.15;;;;;;;;;;5030369;28;42530;-88
2021/12/24 09:47:42;;;;;;;36.47;9.70;;;;;;;;;;5031103;28;42669;-85
2021/12/24 09:50:10;;;;;;;40.08;9.45;;;;;;;;;;5031640;28;43073;-85
2021/12/24 09:52:38;;;;;;;37.13;8.00;;;;;;;;;;5030267;28;41542;-86
2021/12/24 09:55:09;;;;;;;42.60;10.27;;;;;;;;;;5031518;28;43608;-85
2021/12/24 09:57:36;;;;;;;36.95;8.82;;;;;;;;;;5030733;28;43816;-85
2021/12/24 10:00:05;;;;;;;39.90;8.98;;;;;;;;;;5030949;28;36148;-85
2021/12/24 10:02:39;;;;;;;42.22;9.27;;;;;;;;;;5029515;28;45910;-85
2021/12/24 10:05:26;;;;;;;39.53;9.63;;;;;;;;;;5029841;28;44936;-85
2021/12/24 10:08:10;;;;;;;36.83;8.05;;;;;;;;;;5029050;28;45143;-85
2021/12/24 10:10:41;;;;;;;48.17;10.38;;;;;;;;;;5030189;28;42949;-86
2021/12/24 10:13:24;;;;;;;40.30;8.63;;;;;;;;;;5029271;28;44521;-86
2021/12/24 10:15:56;;;;;;;46.38;9.60;;;;;;;;;;5030181;28;44718;-86
2021/12/24 10:18:28;;;;;;;41.78;9.45;;;;;;;;;;5030879;28;20141;-86
2021/12/24 10:21:03;;;;;;;41.00;9.05;;;;;;;;;;5030246;28;45129;-86
2021/12/24 10:23:41;;;;;;;35.85;10.35;;;;;;;;;;5030037;28;42909;-86
2021/12/24 10:26:12;;;;;;;30.00;9.68;;;;;;;;;;5030257;28;42888;-85
2021/12/24 10:28:47;;;;;;;41.83;10.30;;;;;;;;;;5029333;28;44680;-86
2021/12/24 10:31:16;;;;;;;41.25;11.15;;;;;;;;;;5025155;28;43480;-85
2021/12/24 10:34:02;;;;;;;34.90;10.20;;;;;;;;;;5030569;28;45111;-84
2021/12/24 10:36:29;;;;;;;39.83;10.48;;;;;;;;;;5027778;28;44736;-85
2021/12/24 10:38:56;;;;;;;54.00;12.43;;;;;;;;;;5028348;28;43927;-85
2021/12/24 10:41:27;;;;;;;52.17;12.13;;;;;;;;;;5027514;28;43480;-85
2021/12/24 10:43:54;;;;;;;52.47;12.02;;;;;;;;;;5027396;28;43472;-86
2021/12/24 10:46:22;;;;;;;50.47;12.63;;;;;;;;;;5027492;28;45117;-86
2021/12/24 10:49:16;;;;;;;40.10;12.45;;;;;;;;;;5028349;28;43791;-85
2021/12/24 10:51:57;;;;;;;47.95;12.30;;;;;;;;;;5028072;28;43947;-85
2021/12/24 10:54:25;;;;;;;50.00;11.15;;;;;;;;;;5027887;28;44959;-86
2021/12/24 10:56:54;;;;;;;63.95;13.50;;;;;;;;;;5027834;28;44692;-87
2021/12/24 10:59:39;;;;;;;53.30;16.13;;;;;;;;;;5029141;28;42971;-86
2021/12/24 11:02:09;;;;;;;61.45;14.15;;;;;;;;;;5007969;28;42926;-85
2021/12/24 11:04:36;;;;;;;45.30;13.63;;;;;;;;;;5008714;28;44774;-85
2021/12/24 11:07:23;;;;;;;62.40;14.82;;;;;;;;;;5023871;28;45264;-85
2021/12/24 11:10:04;;;;;;;50.00;15.07;;;;;;;;;;5023068;28;45247;-86
2021/12/24 11:12:35;;;;;;;48.50;14.25;;;;;;;;;;5027736;28;43951;-85
2021/12/24 11:15:01;;;;;;;53.17;14.45;;;;;;;;;;5033589;28;44866;-85
2021/12/24 11:17:37;;;;;;;47.40;15.55;;;;;;;;;;5045617;28;44756;-86
2021/12/24 11:20:08;;;;;;;45.90;17.42;;;;;;;;;;5047021;28;43575;-86
2021/12/24 11:22:53;;;;;;;36.33;14.18;;;;;;;;;;5029378;28;44925;-86
2021/12/24 11:25:21;;;;;;;48.08;18.08;;;;;;;;;;5027953;28;44831;-85
2021/12/24 11:27:47;;;;;;;55.83;18.80;;;;;;;;;;5038242;28;44949;-85
2021/12/24 11:30:14;;;;;;;43.85;16.10;;;;;;;;;;5041338;28;43915;-85
2021/12/24 11:32:42;;;;;;;46.08;16.02;;;;;;;;;;5026561;28;45048;-86
2021/12/24 11:35:11;;;;;;;45.85;15.40;;;;;;;;;;5028254;28;43879;-86
2021/12/24 11:37:38;;;;;;;46.97;14.43;;;;;;;;;;5026514;28;43728;-85
2021/12/24 11:40:05;;;;;;;50.53;14.90;;;;;;;;;;5028152;28;42968;-85
2021/12/24 11:42:38;;;;;;;49.65;16.42;;;;;;;;;;5026758;28;43874;-85
2021/12/24 11:45:05;;;;;;;52.55;16.73;;;;;;;;;;5026937;28;43698;-85
2021/12/24 11:47:32;;;;;;;74.13;20.92;;;;;;;;;;5026651;28;44948;-85
2021/12/24 11:49:59;;;;;;;83.47;20.73;;;;;;;;;;5027229;28;43739;-85
2021/12/24 11:52:27;;;;;;;61.42;16.45;;;;;;;;;;5026413;28;44944;-85
2021/12/24 11:54:57;;;;;;;51.60;15.80;;;;;;;;;;5028425;28;43895;-86
2021/12/24 11:57:24;;;;;;;66.60;17.20;;;;;;;;;;5030609;28;43683;-87
2021/12/24 11:59:51;;;;;;;63.45;15.77;;;;;;;;;;5050085;28;43929;-86
2021/12/24 12:02:34;;;;;;;62.55;16.92;;;;;;;;;;5040334;28;45469;-85
2021/12/24 12:05:11;;;;;;;72.53;17.52;;;;;;;;;;5046702;28;44720;-84
2021/12/24 12:07:43;;;;;;;52.65;14.40;;;;;;;;;;5046163;28;44960;-86
2021/12/24 12:10:10;;;;;;;40.92;13.05;;;;;;;;;;5046848;28;45131;-85
2021/12/24 12:12:38;;;;;;;45.97;12.90;;;;;;;;;;5045649;28;42290;-85
2021/12/24 12:15:23;;;;;;;46.22;11.65;;;;;;;;;;5033150;28;44757;-85
2021/12/24 12:17:51;;;;;;;49.83;13.15;;;;;;;;;;5026316;28;44302;-85
2021/12/24 12:20:41;;;;;;;61.63;13.25;;;;;;;;;;5026902;28;44944;-83
2021/12/24 12:23:14;;;;;;;51.40;11.38;;;;;;;;;;5025924;28;44863;-85
2021/12/24 12:25:41;;;;;;;56.42;12.23;;;;;;;;;;5027432;28;44720;-85
2021/12/24 12:28:18;;;;;;;61.00;13.60;;;;;;;;;;5026346;28;42894;-85
2021/12/24 12:30:52;;;;;;;54.83;11.95;;;;;;;;;;5023361;28;44920;-84
2021/12/24 12:33:20;;;;;;;50.30;11.77;;;;;;;;;;5026101;28;20176;-85
2021/12/24 12:35:53;;;;;;;40.85;10.70;;;;;;;;;;5022271;28;45994;-84
2021/12/24 12:38:39;;;;;;;45.30;11.90;;;;;;;;;;5028831;28;42832;-84
2021/12/24 12:41:18;;;;;;;44.85;11.40;;;;;;;;;;5028227;28;45592;-83
2021/12/24 12:43:46;;;;;;;53.55;12.30;;;;;;;;;;5026969;28;20065;-84
2021/12/24 12:46:27;;;;;;;59.67;12.68;;;;;;;;;;5028577;28;43243;-84
2021/12/24 12:48:55;;;;;;;59.05;12.80;;;;;;;;;;5025070;28;43219;-84
2021/12/24 12:51:41;;;;;;;36.90;9.73;;;;;;;;;;5027768;28;44905;-84
2021/12/24 12:54:28;;;;;;;31.58;7.60;;;;;;;;;;5026655;28;44356;-85
2021/12/24 12:57:13;;;;;;;33.55;8.00;;;;;;;;;;5028133;28;44236;-84
2021/12/24 12:59:41;;;;;;;24.67;7.20;;;;;;;;;;5028756;28;43770;-83
2021/12/24 13:02:07;;;;;;;43.80;9.70;;;;;;;;;;5027419;28;46926;-83
2021/12/24 13:04:34;;;;;;;30.83;6.68;;;;;;;;;;5027574;28;44874;-83
2021/12/24 13:07:01;;;;;;;25.85;7.63;;;;;;;;;;5029502;28;43804;-85
2021/12/24 13:09:33;;;;;;;43.20;7.82;;;;;;;;;;5028102;28;43935;-84
2021/12/24 13:12:01;;;;;;;28.75;6.70;;;;;;;;;;5021266;28;42898;-85
2021/12/24 13:14:29;;;;;;;41.10;7.82;;;;;;;;;;5028884;28;44056;-84
2021/12/24 13:17:17;;;;;;;26.52;7.40;;;;;;;;;;5018394;28;44876;-83
2021/12/24 13:22:32;;;;;;;37.58;8.25;;;;;;;;;;5028493;28;42408;-84
2021/12/24 13:25:06;;;;;;;30.23;7.40;;;;;;;;;;5027573;28;42956;-84
2021/12/24 13:27:37;;;;;;;20.63;6.22;;;;;;;;;;5024803;28;42730;-83
2021/12/24 13:30:21;;;;;;;29.38;6.60;;;;;;;;;;5025615;28;45270;-84
2021/12/24 13:32:49;;;;;;;20.73;6.05;;;;;;;;;;5023488;28;44850;-84
2021/12/24 13:35:16;;;;;;;;;;;;;;;;;;5023751;28;44728;-84
2021/12/24 13:37:46;;;;;;;40.50;7.25;;;;;;;;;;5028166;28;43067;-82
2021/12/24 13:40:17;;;;;;;23.40;6.82;;;;;;;;;;5027005;28;44818;-83
2021/12/24 13:42:48;;;;;;;25.40;6.88;;;;;;;;;;5027231;28;39791;-82
2021/12/24 13:45:15;;;;;;;50.92;9.13;;;;;;;;;;5028691;28;45311;-84
2021/12/24 13:47:55;;;;;;;32.73;8.33;;;;;;;;;;5024393;28;42592;-83
2021/12/24 13:50:32;;;;;;;28.42;7.45;;;;;;;;;;5027347;28;42648;-84
2021/12/24 13:55:53;;;;;;;18.83;6.93;;;;;;;;;;5027945;28;44481;-83
2021/12/24 13:58:21;;;;;;;33.15;9.10;;;;;;;;;;5025692;28;43850;-83
2021/12/24 14:00:49;;;;;;;36.42;7.70;;;;;;;;;;5028346;28;42624;-83
2021/12/24 14:03:17;;;;;;;28.60;7.78;;;;;;;;;;5026788;28;43721;-83
2021/12/24 14:05:48;;;;;;;28.88;6.95;;;;;;;;;;5027400;28;45868;-83
2021/12/24 14:08:16;;;;;;;27.55;7.60;;;;;;;;;;5027505;28;44956;-83
2021/12/24 14:10:44;;;;;;;39.88;8.10;;;;;;;;;;5027944;28;45210;-84
2021/12/24 14:13:23;;;;;;;31.38;7.43;;;;;;;;;;5025818;28;44876;-84
2021/12/24 14:16:10;;;;;;;26.25;7.40;;;;;;;;;;5027631;28;42590;-84
2021/12/24 14:21:45;;;;;;;28.23;8.38;;;;;;;;;;5025603;28;43953;-83
2021/12/24 14:24:12;;;;;;;48.05;9.77;;;;;;;;;;5024213;28;43724;-84
2021/12/24 14:26:40;;;;;;;21.93;7.00;;;;;;;;;;5024024;28;44077;-83
2021/12/24 14:29:07;;;;;;;8.32;4.07;;;;;;;;;;5025585;28;37629;-83
2021/12/24 14:31:48;;;;;;;20.95;4.47;;;;;;;;;;5026836;28;44985;-84
2021/12/24 14:34:47;;;;;;;10.18;3.47;;;;;;;;;;5026253;28;44848;-83
2021/12/24 14:37:18;;;;;;;4.78;2.45;;;;;;;;;;5025650;28;43624;-83
2021/12/24 14:40:05;;;;;;;8.07;2.83;;;;;;;;;;5027145;28;45028;-83
2021/12/24 14:42:46;;;;;;;5.35;2.58;;;;;;;;;;5022695;28;45354;-84
2021/12/24 14:45:18;;;;;;;1.90;1.20;;;;;;;;;;5026402;28;43241;-84
2021/12/24 14:48:00;;;;;;;2.50;1.50;;;;;;;;;;5025999;28;45288;-83
2021/12/24 14:50:27;;;;;;;2.75;1.42;;;;;;;;;;5026773;28;44916;-83
2021/12/24 14:53:12;;;;;;;8.05;1.98;;;;;;;;;;5025962;28;44700;-84
2021/12/24 14:55:40;;;;;;;5.22;2.40;;;;;;;;;;5025410;28;45052;-83
2021/12/24 14:58:07;;;;;;;;;;;;;;;;;;5028291;28;42456;-83
2021/12/24 15:00:47;;;;;;;8.15;3.08;;;;;;;;;;5027571;28;45028;-83
2021/12/24 15:03:15;;;;;;;6.72;3.40;;;;;;;;;;5024618;28;44899;-83
2021/12/24 15:05:43;;;;;;;21.67;4.00;;;;;;;;;;5027015;28;42598;-83
2021/12/24 15:08:21;;;;;;;6.45;2.00;;;;;;;;;;5026080;28;43216;-83
2021/12/24 15:11:07;;;;;;;7.40;1.73;;;;;;;;;;5026686;28;45432;-83
2021/12/24 15:13:36;;;;;;;6.57;2.50;;;;;;;;;;5026127;28;46135;-83
2021/12/24 15:16:03;;;;;;;3.30;2.33;;;;;;;;;;5027052;28;60433;-83
2021/12/24 15:18:30;;;;;;;15.60;2.67;;;;;;;;;;5029283;28;42682;-83
2021/12/24 15:20:58;;;;;;;10.60;2.83;;;;;;;;;;5037882;28;44090;-83
2021/12/24 15:23:25;;;;;;;;;;;;;;;;;;5037388;28;44985;-83
2021/12/24 15:25:52;;;;;;;6.47;2.97;;;;;;;;;;5037886;28;43431;-83
2021/12/24 15:28:23;;;;;;;6.25;3.30;;;;;;;;;;5036144;28;43015;-83
2021/12/24 15:30:51;;;;;;;7.03;3.78;;;;;;;;;;5035962;28;45133;-84
2021/12/24 15:33:18;;;;;;;5.72;3.60;;;;;;;;;;5034726;28;43546;-83
2021/12/24 15:35:45;;;;;;;18.02;6.88;;;;;;;;;;5036948;28;43938;-83
2021/12/24 15:38:12;;;;;;;8.50;4.95;;;;;;;;;;5043511;28;45720;-84
2021/12/24 15:40:39;;;;;;;6.97;3.92;;;;;;;;;;5045011;28;43108;-83
2021/12/24 15:43:08;;;;;;;5.57;3.72;;;;;;;;;;5036641;28;44916;-83
2021/12/24 15:45:35;;;;;;;14.82;6.90;;;;;;;;;;5037414;28;44926;-84
2021/12/24 15:48:05;;;;;;;20.20;8.90;;;;;;;;;;5036327;28;42755;-83
2021/12/24 15:50:31;;;;;;;10.90;6.65;;;;;;;;;;5036169;28;44893;-83
2021/12/24 15:52:58;;;;;;;10.45;6.75;;;;;;;;;;5035724;28;42660;-83
2021/12/24 15:55:25;;;;;;;23.25;8.98;;;;;;;;;;5037084;28;43517;-83
2021/12/24 15:57:51;;;;;;;9.77;6.43;;;;;;;;;;5035169;28;45673;-83
2021/12/24 16:00:18;;;;;;;20.38;8.48;;;;;;;;;;5035960;28;44685;-84
2021/12/24 16:02:45;;;;;;;7.50;6.80;;;;;;;;;;5038211;28;43970;-86
2021/12/24 16:05:12;;;;;;;25.33;8.55;;;;;;;;;;5040282;28;36361;-84
2021/12/24 16:07:39;;;;;;;12.63;7.00;;;;;;;;;;5039734;28;42960;-84
2021/12/24 16:10:06;;;;;;;24.02;9.82;;;;;;;;;;5040340;28;44251;-84
2021/12/24 16:12:33;;;;;;;32.75;11.15;;;;;;;;;;5037918;28;42658;-84
2021/12/24 16:15:00;;;;;;;23.30;10.20;;;;;;;;;;5039148;28;43421;-84
2021/12/24 16:17:29;;;;;;;18.38;7.93;;;;;;;;;;5038556;28;44884;-84
2021/12/24 16:19:55;;;;;;;19.30;8.68;;;;;;;;;;5038190;28;44714;-84